createdAt,value
2019-01-30T00:00:52.319Z,-1.73
2019-01-30T00:03:23.677Z,-1.76
2019-01-30T00:05:54.620Z,-1.84
2019-01-30T00:08:25.658Z,-1.83
2019-01-30T00:10:56.604Z,-1.92
2019-01-30T00:13:27.506Z,-1.95
2019-01-30T00:15:58.487Z,-2.03
2019-01-30T00:18:29.824Z,-2.09
2019-01-30T00:21:00.831Z,-2.05
2019-01-30T00:23:32.113Z,-2.01
2019-01-30T00:26:03.020Z,-2.05
2019-01-30T00:28:34.114Z,-2.03
2019-01-30T00:31:05.220Z,-2.08
2019-01-30T00:33:36.188Z,-2.20
2019-01-30T00:36:07.198Z,-2.31
2019-01-30T00:38:38.171Z,-2.39
2019-01-30T00:41:09.239Z,-2.41
2019-01-30T00:43:40.226Z,-2.47
2019-01-30T00:46:11.194Z,-2.53
2019-01-30T00:48:42.179Z,-2.48
2019-01-30T00:51:13.152Z,-2.56
2019-01-30T00:53:44.103Z,-2.55
2019-01-30T00:56:14.995Z,-2.58
2019-01-30T00:58:45.895Z,-2.57
2019-01-30T01:01:16.824Z,-2.59
2019-01-30T01:03:47.759Z,-2.63
2019-01-30T01:06:18.732Z,-2.59
2019-01-30T01:08:49.661Z,-2.58
2019-01-30T01:11:20.607Z,-2.55
2019-01-30T01:13:51.615Z,-2.56
2019-01-30T01:16:22.575Z,-2.59
2019-01-30T01:18:53.678Z,-2.64
2019-01-30T01:21:24.954Z,-2.67
2019-01-30T01:23:56.481Z,-2.71
2019-01-30T01:26:27.441Z,-2.79
2019-01-30T01:28:58.336Z,-2.85
2019-01-30T01:31:29.252Z,-2.87
2019-01-30T01:34:00.464Z,-2.84
2019-01-30T01:36:31.435Z,-2.83
2019-01-30T01:39:02.350Z,-2.73
2019-01-30T01:41:33.326Z,-2.67
2019-01-30T01:44:04.382Z,-2.65
2019-01-30T01:46:35.597Z,-2.68
2019-01-30T01:49:06.699Z,-2.75
2019-01-30T01:51:37.619Z,-2.79
2019-01-30T01:54:08.552Z,-2.66
2019-01-30T01:56:39.766Z,-2.69
2019-01-30T01:59:10.650Z,-2.67
2019-01-30T02:01:41.640Z,-2.65
2019-01-30T02:04:12.545Z,-2.75
2019-01-30T02:06:43.484Z,-2.73
2019-01-30T02:09:14.560Z,-2.72
2019-01-30T02:11:45.498Z,-2.77
2019-01-30T02:14:16.454Z,-2.80
2019-01-30T02:16:47.677Z,-2.77
2019-01-30T02:19:19.165Z,-2.75
2019-01-30T02:21:50.082Z,-2.81
2019-01-30T02:24:21.072Z,-2.85
2019-01-30T02:26:52.021Z,-2.81
2019-01-30T02:29:23.214Z,-2.80
2019-01-30T02:31:54.140Z,-2.82
2019-01-30T02:34:25.152Z,-2.87
2019-01-30T02:36:59.725Z,-2.90
2019-01-30T02:39:30.688Z,-3.02
2019-01-30T02:42:01.621Z,-3.09
2019-01-30T02:44:32.629Z,-3.14
2019-01-30T02:47:03.560Z,-3.00
2019-01-30T02:49:34.761Z,-2.99
2019-01-30T02:52:06.110Z,-3.00
2019-01-30T02:54:37.122Z,-2.98
2019-01-30T02:57:08.014Z,-2.98
2019-01-30T02:59:38.965Z,-2.92
2019-01-30T03:02:20.421Z,-2.88
2019-01-30T03:04:51.411Z,-2.76
2019-01-30T03:07:22.317Z,-2.65
2019-01-30T03:09:53.239Z,-2.57
2019-01-30T03:12:24.155Z,-2.59
2019-01-30T03:14:55.055Z,-2.56
2019-01-30T03:17:26.346Z,-2.52
2019-01-30T03:19:57.240Z,-2.52
2019-01-30T03:22:28.421Z,-2.50
2019-01-30T03:24:59.656Z,-2.53
2019-01-30T03:27:30.656Z,-2.50
2019-01-30T03:30:01.615Z,-2.40
2019-01-30T03:32:32.821Z,-2.41
2019-01-30T03:35:03.750Z,-2.31
2019-01-30T03:37:34.675Z,-2.33
2019-01-30T03:40:06.847Z,-2.26
2019-01-30T03:42:37.832Z,-2.27
2019-01-30T03:45:09.553Z,-2.10
2019-01-30T03:47:40.433Z,-1.99
2019-01-30T03:50:12.494Z,-2.00
2019-01-30T03:52:43.389Z,-1.87
2019-01-30T03:55:15.990Z,-1.71
2019-01-30T03:57:46.897Z,-1.64
2019-01-30T04:00:23.873Z,-1.56
2019-01-30T04:02:55.605Z,-1.57
2019-01-30T04:05:26.739Z,-1.53
2019-01-30T04:07:58.068Z,-1.50
2019-01-30T04:10:28.947Z,-1.58
2019-01-30T04:12:59.891Z,-1.48
2019-01-30T04:15:30.791Z,-1.50
2019-01-30T04:18:01.756Z,-1.49
2019-01-30T04:20:32.737Z,-1.52
2019-01-30T04:23:03.651Z,-1.46
2019-01-30T04:25:34.947Z,-1.52
2019-01-30T04:28:05.973Z,-1.59
2019-01-30T04:30:36.872Z,-1.58
2019-01-30T04:33:07.900Z,-1.58
2019-01-30T04:35:38.863Z,-1.62
2019-01-30T04:38:10.049Z,-1.58
2019-01-30T04:40:40.963Z,-1.73
2019-01-30T04:43:11.865Z,-1.75
2019-01-30T04:45:42.804Z,-1.71
2019-01-30T04:48:13.707Z,-1.73
2019-01-30T04:50:44.727Z,-1.63
2019-01-30T04:53:15.918Z,-1.75
2019-01-30T04:55:46.830Z,-1.84
2019-01-30T04:58:17.754Z,-1.81
2019-01-30T05:00:48.671Z,-1.88
2019-01-30T05:03:19.633Z,-1.81
2019-01-30T05:05:50.950Z,-1.82
2019-01-30T05:08:21.930Z,-1.87
2019-01-30T05:10:52.973Z,-1.83
2019-01-30T05:13:23.864Z,-1.69
2019-01-30T05:15:54.826Z,-1.71
2019-01-30T05:18:26.168Z,-1.77
2019-01-30T05:20:57.155Z,-1.80
2019-01-30T05:23:28.179Z,-1.74
2019-01-30T05:26:00.061Z,-1.82
2019-01-30T05:28:31.139Z,-1.77
2019-01-30T05:31:02.048Z,-1.67
2019-01-30T05:33:32.940Z,-1.69
2019-01-30T05:36:03.861Z,-1.72
2019-01-30T05:38:34.794Z,-1.71
2019-01-30T05:41:05.835Z,-1.74
2019-01-30T05:43:36.754Z,-1.73
2019-01-30T05:46:07.731Z,-1.72
2019-01-30T05:48:38.720Z,-1.81
2019-01-30T05:51:09.711Z,-1.80
2019-01-30T05:53:40.709Z,-1.84
2019-01-30T05:56:11.608Z,-1.89
2019-01-30T05:58:42.576Z,-1.82
2019-01-30T06:01:13.600Z,-1.72
2019-01-30T06:03:44.722Z,-1.76
2019-01-30T06:06:15.994Z,-1.84
2019-01-30T06:08:47.187Z,-1.82
2019-01-30T06:11:18.457Z,-1.71
2019-01-30T06:13:49.419Z,-1.75
2019-01-30T06:16:20.327Z,-1.65
2019-01-30T06:18:51.580Z,-1.66
2019-01-30T06:21:22.571Z,-1.65
2019-01-30T06:23:53.471Z,-1.63
2019-01-30T06:26:24.519Z,-1.64
2019-01-30T06:28:55.402Z,-1.60
2019-01-30T06:31:28.675Z,-1.59
2019-01-30T06:33:59.657Z,-1.53
2019-01-30T06:36:30.574Z,-1.58
2019-01-30T06:39:01.551Z,-1.48
2019-01-30T06:41:32.775Z,-1.59
2019-01-30T06:44:04.144Z,-1.62
2019-01-30T06:46:35.063Z,-1.58
2019-01-30T06:49:05.976Z,-1.57
2019-01-30T06:51:37.300Z,-1.46
2019-01-30T06:54:08.290Z,-1.48
2019-01-30T06:56:39.253Z,-1.49
2019-01-30T06:59:10.162Z,-1.55
2019-01-30T07:01:41.263Z,-1.49
2019-01-30T07:04:12.252Z,-1.55
2019-01-30T07:06:43.166Z,-1.44
2019-01-30T07:09:14.170Z,-1.53
2019-01-30T07:11:45.139Z,-1.53
2019-01-30T07:14:16.125Z,-1.50
2019-01-30T07:16:47.047Z,-1.43
2019-01-30T07:19:18.063Z,-1.51
2019-01-30T07:21:49.039Z,-1.52
2019-01-30T07:24:19.932Z,-1.49
2019-01-30T07:26:50.987Z,-1.49
2019-01-30T07:29:22.174Z,-1.52
2019-01-30T07:31:53.074Z,-1.35
2019-01-30T07:34:24.357Z,-1.33
2019-01-30T07:36:55.316Z,-1.31
2019-01-30T07:39:26.792Z,-1.28
2019-01-30T07:41:57.725Z,-1.22
2019-01-30T07:44:28.631Z,-1.38
2019-01-30T07:46:59.665Z,-1.26
2019-01-30T07:49:31.169Z,-1.25
2019-01-30T07:52:02.095Z,-1.13
2019-01-30T07:54:33.044Z,-1.25
2019-01-30T07:57:03.947Z,-1.14
2019-01-30T07:59:34.909Z,-1.12
2019-01-30T08:02:06.150Z,-1.19
2019-01-30T08:04:37.823Z,-1.21
2019-01-30T08:07:08.824Z,-1.09
2019-01-30T08:09:39.712Z,-1.22
2019-01-30T08:12:12.580Z,-1.06
2019-01-30T08:14:43.333Z,-1.11
2019-01-30T08:17:14.394Z,-1.06
2019-01-30T08:19:45.390Z,-0.97
2019-01-30T08:22:16.327Z,-0.88
2019-01-30T08:24:47.604Z,-0.86
2019-01-30T08:27:18.929Z,-1.00
2019-01-30T08:29:49.969Z,-1.06
2019-01-30T08:32:22.360Z,-0.91
2019-01-30T08:34:53.404Z,-0.80
2019-01-30T08:37:24.403Z,-0.82
2019-01-30T08:39:55.403Z,-0.89
2019-01-30T08:42:26.324Z,-0.73
2019-01-30T08:44:57.314Z,-0.72
2019-01-30T08:47:28.517Z,-0.55
2019-01-30T08:49:59.711Z,-0.56
2019-01-30T08:52:30.937Z,-0.46
2019-01-30T08:55:01.961Z,-0.41
2019-01-30T08:57:33.332Z,-0.27
2019-01-30T09:00:04.332Z,-0.19
2019-01-30T09:02:35.405Z,-0.14
2019-01-30T09:05:07.897Z,-0.07
2019-01-30T09:07:44.305Z,0.01
2019-01-30T09:10:18.298Z,0.04
2019-01-30T09:12:49.516Z,-0.16
2019-01-30T09:15:22.856Z,0.01
2019-01-30T09:17:53.955Z,0.07
2019-01-30T09:20:25.991Z,0.03
2019-01-30T09:22:57.063Z,0.16
2019-01-30T09:25:30.291Z,0.10
2019-01-30T09:28:02.453Z,0.10
2019-01-30T09:30:39.072Z,0.15
2019-01-30T09:33:12.160Z,0.17
2019-01-30T09:35:43.069Z,0.37
2019-01-30T09:38:14.102Z,0.48
2019-01-30T09:40:45.337Z,0.26
2019-01-30T09:43:16.218Z,0.42
2019-01-30T09:45:47.148Z,0.44
2019-01-30T09:48:18.090Z,0.42
2019-01-30T09:50:49.026Z,0.40
2019-01-30T09:53:19.973Z,0.43
2019-01-30T09:55:50.926Z,0.60
2019-01-30T09:58:23.931Z,0.50
2019-01-30T10:00:54.775Z,0.58
2019-01-30T10:03:35.805Z,0.52
2019-01-30T10:05:58.355Z,0.63
2019-01-30T10:08:29.285Z,0.76
2019-01-30T10:11:00.198Z,0.75
2019-01-30T10:13:31.453Z,0.80
2019-01-30T10:16:02.420Z,0.70
2019-01-30T10:18:33.394Z,1.01
2019-01-30T10:21:04.832Z,1.19
2019-01-30T10:23:35.843Z,1.34
2019-01-30T10:26:06.965Z,1.18
2019-01-30T10:28:37.897Z,1.16
2019-01-30T10:31:08.797Z,1.51
2019-01-30T10:33:46.336Z,1.64
2019-01-30T10:36:13.023Z,1.94
2019-01-30T10:38:44.225Z,1.87
2019-01-30T10:41:15.270Z,2.21
2019-01-30T10:43:46.172Z,2.32
2019-01-30T10:46:17.107Z,2.40
2019-01-30T10:48:48.043Z,2.33
2019-01-30T10:51:18.948Z,2.11
2019-01-30T10:53:49.923Z,2.01
2019-01-30T10:56:20.929Z,1.93
2019-01-30T10:58:51.895Z,2.18
2019-01-30T11:01:22.878Z,2.24
2019-01-30T11:03:57.537Z,1.98
2019-01-30T11:06:26.508Z,1.80
2019-01-30T11:08:57.458Z,1.79
2019-01-30T11:11:28.343Z,1.82
2019-01-30T11:13:59.366Z,1.99
2019-01-30T11:16:30.316Z,1.98
2019-01-30T11:19:01.632Z,1.97
2019-01-30T11:21:32.545Z,1.93
2019-01-30T11:24:03.516Z,1.78
2019-01-30T11:26:36.428Z,1.87
2019-01-30T11:29:07.275Z,1.96
2019-01-30T11:31:38.255Z,1.82
2019-01-30T11:34:09.743Z,1.74
2019-01-30T11:36:40.922Z,1.71
2019-01-30T11:39:12.127Z,1.80
2019-01-30T11:41:43.051Z,1.77
2019-01-30T11:44:14.356Z,1.77
2019-01-30T11:46:45.243Z,1.70
2019-01-30T11:49:16.522Z,1.67
2019-01-30T11:51:47.736Z,1.80
2019-01-30T11:54:18.623Z,1.83
2019-01-30T11:56:50.449Z,1.56
2019-01-30T11:59:21.396Z,1.46
2019-01-30T12:01:52.309Z,1.42
2019-01-30T12:04:23.242Z,1.39
2019-01-30T12:06:54.500Z,1.35
2019-01-30T12:09:25.479Z,1.31
2019-01-30T12:11:56.438Z,1.26
2019-01-30T12:14:27.501Z,1.19
2019-01-30T12:16:58.687Z,1.27
2019-01-30T12:19:29.871Z,1.23
2019-01-30T12:22:01.170Z,1.25
2019-01-30T12:24:32.061Z,1.20
2019-01-30T12:27:03.007Z,1.13
2019-01-30T12:29:34.568Z,1.10
2019-01-30T12:32:05.730Z,1.10
2019-01-30T12:34:37.536Z,1.16
2019-01-30T12:37:09.188Z,1.14
2019-01-30T12:39:40.096Z,1.19
2019-01-30T12:42:11.001Z,1.21
2019-01-30T12:44:42.324Z,1.09
2019-01-30T12:47:19.666Z,1.16
2019-01-30T12:49:45.993Z,1.10
2019-01-30T12:52:17.068Z,1.13
2019-01-30T12:54:48.062Z,1.11
2019-01-30T12:57:18.996Z,1.12
2019-01-30T12:59:49.984Z,1.08
2019-01-30T13:02:21.295Z,1.09
2019-01-30T13:04:52.191Z,1.19
2019-01-30T13:07:23.665Z,1.03
2019-01-30T13:09:54.872Z,1.03
2019-01-30T13:12:26.254Z,1.05
2019-01-30T13:14:57.231Z,0.97
2019-01-30T13:17:28.645Z,1.07
2019-01-30T13:19:59.616Z,1.12
2019-01-30T13:22:30.552Z,0.98
2019-01-30T13:25:01.863Z,1.00
2019-01-30T13:27:32.768Z,0.95
2019-01-30T13:30:04.014Z,0.95
2019-01-30T13:32:35.317Z,0.89
2019-01-30T13:35:07.374Z,0.98
2019-01-30T13:37:38.354Z,0.93
2019-01-30T13:40:16.106Z,0.84
2019-01-30T13:42:47.389Z,0.84
2019-01-30T13:45:18.476Z,0.83
2019-01-30T13:47:49.787Z,0.79
2019-01-30T13:50:25.595Z,0.88
2019-01-30T13:52:56.622Z,0.75
2019-01-30T13:55:28.422Z,0.66
2019-01-30T13:57:59.405Z,0.73
2019-01-30T14:00:36.279Z,0.66
2019-01-30T14:03:08.509Z,0.60
2019-01-30T14:05:39.424Z,0.60
2019-01-30T14:08:12.781Z,0.58
2019-01-30T14:10:43.784Z,0.66
2019-01-30T14:13:14.702Z,0.66
2019-01-30T14:15:45.628Z,0.48
2019-01-30T14:18:17.144Z,0.39
2019-01-30T14:20:48.126Z,0.36
2019-01-30T14:23:19.147Z,0.33
2019-01-30T14:25:50.192Z,0.29
2019-01-30T14:28:21.195Z,0.28
2019-01-30T14:30:52.202Z,0.24
2019-01-30T14:33:23.162Z,0.22
2019-01-30T14:35:54.240Z,0.18
2019-01-30T14:38:25.598Z,0.24
2019-01-30T14:40:56.830Z,0.29
2019-01-30T14:43:27.788Z,0.21
2019-01-30T14:45:59.038Z,0.28
2019-01-30T14:48:30.126Z,0.28
2019-01-30T14:51:01.101Z,0.34
2019-01-30T14:53:32.327Z,0.43
2019-01-30T14:56:03.491Z,0.42
2019-01-30T14:58:34.988Z,0.49
2019-01-30T15:01:06.495Z,0.49
2019-01-30T15:03:37.441Z,0.49
2019-01-30T15:06:08.449Z,0.55
2019-01-30T15:08:40.057Z,0.57
2019-01-30T15:11:11.038Z,0.61
2019-01-30T15:13:42.045Z,0.58
2019-01-30T15:16:13.150Z,0.60
2019-01-30T15:18:44.181Z,0.57
2019-01-30T15:21:15.189Z,0.58
2019-01-30T15:23:46.169Z,0.54
2019-01-30T15:26:17.084Z,0.57
2019-01-30T15:28:48.335Z,0.58
2019-01-30T15:31:19.537Z,0.56
2019-01-30T15:33:50.509Z,0.58
2019-01-30T15:36:21.487Z,0.56
2019-01-30T15:38:52.410Z,0.59
2019-01-30T15:41:23.368Z,0.66
2019-01-30T15:43:54.267Z,0.62
2019-01-30T15:46:25.255Z,0.62
2019-01-30T15:48:56.200Z,0.65
2019-01-30T15:51:27.407Z,0.63
2019-01-30T15:53:58.365Z,0.70
2019-01-30T15:56:29.326Z,0.69
2019-01-30T15:59:00.342Z,0.62
2019-01-30T16:01:39.673Z,0.71
2019-01-30T16:04:10.689Z,0.74
2019-01-30T16:06:41.751Z,0.78
2019-01-30T16:09:15.007Z,0.76
2019-01-30T16:11:45.897Z,0.73
2019-01-30T16:14:18.264Z,0.67
2019-01-30T16:16:49.334Z,0.76
2019-01-30T16:19:20.277Z,0.72
2019-01-30T16:21:51.279Z,0.74
2019-01-30T16:24:22.497Z,0.76
2019-01-30T16:26:53.734Z,0.76
2019-01-30T16:29:24.691Z,0.76
2019-01-30T16:31:55.987Z,0.76
2019-01-30T16:34:27.321Z,0.84
2019-01-30T16:36:58.313Z,0.89
2019-01-30T16:39:29.284Z,0.80
2019-01-30T16:42:00.249Z,0.81
2019-01-30T16:44:31.239Z,0.84
2019-01-30T16:47:02.584Z,0.91
2019-01-30T16:49:33.484Z,0.95
2019-01-30T16:52:04.544Z,0.96
2019-01-30T16:54:35.849Z,0.81
2019-01-30T16:57:06.887Z,0.81
2019-01-30T16:59:38.002Z,0.84
2019-01-30T17:02:08.955Z,0.86
2019-01-30T17:04:39.903Z,0.96
2019-01-30T17:07:10.980Z,0.87
2019-01-30T17:09:41.942Z,0.84
2019-01-30T17:12:12.948Z,0.88
2019-01-30T17:14:45.489Z,0.91
2019-01-30T17:17:16.745Z,0.93
2019-01-30T17:19:47.801Z,0.87
2019-01-30T17:22:18.809Z,0.92
2019-01-30T17:24:49.820Z,0.92
2019-01-30T17:27:21.641Z,0.95
2019-01-30T17:29:52.648Z,0.88
2019-01-30T17:32:23.578Z,0.92
2019-01-30T17:34:54.785Z,0.91
2019-01-30T17:37:25.885Z,0.93
2019-01-30T17:39:56.878Z,0.95
2019-01-30T17:42:28.132Z,0.89
2019-01-30T17:44:59.054Z,0.93
2019-01-30T17:47:30.076Z,0.96
2019-01-30T17:50:01.047Z,0.95
2019-01-30T17:52:32.052Z,0.90
2019-01-30T17:55:04.455Z,0.95
2019-01-30T17:57:35.554Z,0.91
2019-01-30T18:00:16.848Z,0.90
2019-01-30T18:02:47.874Z,0.95
2019-01-30T18:05:19.160Z,0.90
2019-01-30T18:07:50.199Z,0.90
2019-01-30T18:10:21.339Z,0.86
2019-01-30T18:12:52.434Z,0.90
2019-01-30T18:15:23.433Z,0.94
2019-01-30T18:17:54.563Z,0.94
2019-01-30T18:20:25.768Z,0.87
2019-01-30T18:22:56.700Z,0.84
2019-01-30T18:25:27.665Z,0.95
2019-01-30T18:27:58.625Z,0.94
2019-01-30T18:30:29.664Z,0.89
2019-01-30T18:33:00.717Z,0.96
2019-01-30T18:35:31.971Z,0.90
2019-01-30T18:38:03.112Z,0.96
2019-01-30T18:40:34.542Z,1.00
2019-01-30T18:43:06.192Z,0.99
2019-01-30T18:45:37.211Z,0.91
2019-01-30T18:48:08.269Z,0.96
2019-01-30T18:50:39.724Z,0.95
2019-01-30T18:53:10.950Z,0.89
2019-01-30T18:55:41.871Z,0.96
2019-01-30T18:58:12.887Z,0.95
2019-01-30T19:00:45.344Z,0.94
2019-01-30T19:03:19.022Z,0.94
2019-01-30T19:05:50.557Z,0.96
2019-01-30T19:08:21.969Z,0.91
2019-01-30T19:10:52.894Z,0.92
2019-01-30T19:13:23.846Z,0.91
2019-01-30T19:15:55.944Z,0.89
2019-01-30T19:18:27.963Z,0.94
2019-01-30T19:20:59.022Z,0.92
2019-01-30T19:23:30.390Z,0.92
2019-01-30T19:26:02.543Z,0.91
2019-01-30T19:28:33.513Z,0.96
2019-01-30T19:31:04.551Z,0.96
2019-01-30T19:33:35.872Z,0.88
2019-01-30T19:36:09.211Z,0.96
2019-01-30T19:38:40.538Z,0.88
2019-01-30T19:41:11.529Z,0.96
2019-01-30T19:43:42.773Z,0.91
2019-01-30T19:46:13.728Z,0.89
2019-01-30T19:48:44.657Z,0.88
2019-01-30T19:51:17.799Z,0.90
2019-01-30T19:53:48.758Z,0.85
2019-01-30T19:56:20.000Z,0.85
2019-01-30T19:58:50.998Z,0.85
2019-01-30T20:01:23.875Z,0.86
2019-01-30T20:03:55.144Z,0.94
2019-01-30T20:06:26.366Z,1.00
2019-01-30T20:08:57.660Z,1.00
2019-01-30T20:11:28.964Z,0.97
2019-01-30T20:14:05.039Z,0.93
2019-01-30T20:16:36.037Z,0.96
2019-01-30T20:19:07.355Z,0.85
2019-01-30T20:21:38.671Z,0.93
2019-01-30T20:24:09.651Z,0.86
2019-01-30T20:26:41.228Z,0.84
2019-01-30T20:29:12.461Z,0.92
2019-01-30T20:31:45.461Z,0.89
2019-01-30T20:34:16.432Z,0.88
2019-01-30T20:36:47.711Z,0.88
2019-01-30T20:39:18.667Z,0.84
2019-01-30T20:41:51.638Z,0.90
2019-01-30T20:44:22.642Z,0.89
2019-01-30T20:46:53.935Z,0.86
2019-01-30T20:49:28.425Z,0.89
2019-01-30T20:52:00.637Z,1.00
2019-01-30T20:54:32.881Z,0.92
2019-01-30T20:57:03.880Z,0.95
2019-01-30T20:59:35.241Z,0.88
2019-01-30T21:02:06.485Z,0.90
2019-01-30T21:04:37.715Z,0.81
2019-01-30T21:07:08.697Z,0.78
2019-01-30T21:09:39.816Z,0.70
2019-01-30T21:12:10.795Z,0.83
2019-01-30T21:14:41.756Z,0.74
2019-01-30T21:17:12.774Z,0.83
2019-01-30T21:19:43.897Z,0.77
2019-01-30T21:22:16.777Z,0.71
2019-01-30T21:24:47.739Z,0.69
2019-01-30T21:27:18.777Z,0.81
2019-01-30T21:29:51.128Z,0.67
2019-01-30T21:32:22.193Z,0.79
2019-01-30T21:34:53.413Z,0.64
2019-01-30T21:37:24.418Z,0.66
2019-01-30T21:39:56.194Z,0.70
2019-01-30T21:42:27.533Z,0.65
2019-01-30T21:44:58.520Z,0.84
2019-01-30T21:47:29.509Z,0.73
2019-01-30T21:50:00.497Z,0.70
2019-01-30T21:52:31.817Z,0.70
2019-01-30T21:55:04.615Z,0.72
2019-01-30T21:57:35.621Z,0.78
2019-01-30T22:00:10.758Z,0.81
2019-01-30T22:02:41.687Z,0.83
2019-01-30T22:05:12.614Z,0.81
2019-01-30T22:07:43.539Z,0.73
2019-01-30T22:10:24.393Z,0.76
2019-01-30T22:12:55.457Z,0.76
2019-01-30T22:15:26.796Z,0.76
2019-01-30T22:17:57.808Z,0.82
2019-01-30T22:20:29.205Z,0.78
2019-01-30T22:23:00.545Z,0.77
2019-01-30T22:25:31.478Z,0.78
2019-01-30T22:28:02.420Z,0.79
2019-01-30T22:30:35.947Z,0.74
2019-01-30T22:33:07.736Z,0.78
2019-01-30T22:35:38.843Z,0.87
2019-01-30T22:38:12.646Z,0.94
2019-01-30T22:40:42.465Z,1.00
2019-01-30T22:43:13.404Z,1.03
2019-01-30T22:45:44.363Z,1.11
2019-01-30T22:48:15.561Z,1.17
2019-01-30T22:50:46.552Z,1.25
2019-01-30T22:53:17.520Z,1.36
2019-01-30T22:55:48.444Z,1.45
2019-01-30T22:58:19.534Z,1.51
2019-01-30T23:01:13.251Z,1.52
2019-01-30T23:04:38.775Z,1.49
2019-01-30T23:07:56.742Z,1.50
2019-01-30T23:11:42.652Z,1.50
2019-01-30T23:14:24.935Z,1.41
2019-01-30T23:17:35.337Z,1.44
2019-01-30T23:20:28.410Z,1.45
2019-01-30T23:23:16.276Z,1.47
2019-01-30T23:26:27.988Z,1.47
2019-01-30T23:30:10.833Z,1.49
2019-01-30T23:33:44.254Z,1.51
2019-01-30T23:37:39.229Z,1.51
2019-01-30T23:40:50.283Z,1.50
2019-01-30T23:44:00.497Z,1.47
2019-01-30T23:47:20.897Z,1.47
2019-01-30T23:50:23.688Z,1.43
2019-01-30T23:54:12.525Z,1.50
2019-01-30T23:57:52.792Z,1.57
